EGPO - Stornoway, United Kingdom
Distance from station: E 3km
Updated: Tue, 20-Oct-2020 11:50am BST
Light rain, Mostly cloudy
Light rain, Mostly cloudy
 Wind from ENE
Wind: ENE 13 mph , 20 km/h
Temperature: 11°C
Dew Point: 10°C
Humidity: 94%
Barometer: 993 hPa
Summary: Light Rain
Clouds: Mostly Cloudy
Visibility: 6 miles , 9 km
Cloud details: Few Clouds 122 m
Mostly Cloudy 183 m
Mostly Cloudy 366 m
2020/10/20 10:50 EGPO 201050Z 07011KT 9000 -RA FEW004 BKN006 BKN012 11/10 Q0993
EGPL - Benbecula Island, United Kingdom
Distance from station: SW 102km
Updated: Tue, 20-Oct-2020 11:50am BST
Light drizzle, Mostly cloudy
Light drizzle, Mostly cloudy
 Wind from E
Wind: E 13 mph , 20 km/h
Temperature: 12°C
Dew Point: 11°C
Humidity: 94%
Barometer: 992 hPa
Summary: Light Drizzle
Clouds: Mostly Cloudy
Visibility: 3 miles , 4 km
Cloud details: Mostly Cloudy 152 m
2020/10/20 10:50 EGPL 201050Z AUTO 08011KT 4100 -DZ BKN005/// 12/11 Q0992
EGQA - Tain Range (saws, United Kingdom
Distance from station: ESE 149km
Updated: Tue, 20-Oct-2020 11:50am BST
Overcast
Overcast
 Wind from ENE
Wind: ENE 5 mph , 7 km/h
Clouds: Overcast
Visibility: 6 miles , 10 km
Cloud details: Few Clouds 61 m
Partly Cloudy 549 m
Overcast 1524 m
2020/10/20 10:50 EGQA 201050Z 06004KT 9999 FEW002 SCT018 OVC050 09/// Q0994 RMK WHT
 
EGPE - Inverness/Dalcro, United Kingdom
Distance from station: ESE 158km
Updated: Tue, 20-Oct-2020 11:50am BST
Mostly Cloudy
Mostly Cloudy
 Wind from ENE
Wind: ENE 2 mph , 4 km/h
Temperature: 11°C
Dew Point: 10°C
Humidity: 94%
Barometer: 994 hPa
Clouds: Mostly Cloudy
Visibility: 6 miles , 10 km
Cloud details: Few Clouds 30 m
Mostly Cloudy 1372 m
2020/10/20 10:50 EGPE 201050Z 06002KT 9999 FEW001 BKN045 11/10 Q0994
EGQS - Lossiemouth Raf, United Kingdom
Distance from station: ESE 188km
Updated: Tue, 20-Oct-2020 11:50am BST
Light rain, Mostly cloudy
Light rain, Mostly cloudy
 Wind from ESE
Wind: ESE 7 mph , 11 km/h
Temperature: 11°C
Dew Point: 10°C
Humidity: 94%
Barometer: 994 hPa
Summary: Light Rain
Clouds: Mostly Cloudy
Visibility: 6 miles , 10 km
Cloud details: Few Clouds 762 m
Mostly Cloudy 1524 m
2020/10/20 10:50 EGQS 201050Z 11006KT 9999 -RA FEW025 BKN050 11/10 Q0994 NOSIG RMK BLU BLU
EGPU - Tiree Island, United Kingdom
Distance from station: S 193km
Updated: Tue, 20-Oct-2020 11:50am BST
Few Clouds
Few Clouds
 Wind from SE
Wind: SE 22 mph , 35 km/h
Temperature: 12°C
Dew Point: 11°C
Humidity: 94%
Barometer: 990 hPa
Clouds: Few Clouds
Visibility: 6 miles , 10 km
Cloud details: Few Clouds 853 m
2020/10/20 10:50 EGPU 201050Z AUTO 13019KT 9999 FEW028/// 12/11 Q0990
 
EGPC - Wick, United Kingdom
Distance from station: E 195km
Updated: Tue, 20-Oct-2020 11:50am BST
Light rain, Mostly cloudy
Light rain, Mostly cloudy
 Wind from SE
Wind: SE 7 mph , 11 km/h
Temperature: 11°C
Dew Point: 10°C
Humidity: 94%
Barometer: 995 hPa
Summary: Light Rain
Clouds: Mostly Cloudy
Visibility: 6 miles , 9 km
Cloud details: Partly Cloudy 183 m
Mostly Cloudy 335 m
2020/10/20 10:50 EGPC 201050Z 14006KT 9000 -RA SCT006 BKN011 11/10 Q0995
EGEO - Oban Airport, United Kingdom
Distance from station: SSE 203km
Updated: Tue, 20-Oct-2020 11:50am BST
Partly Cloudy
Partly Cloudy
 Wind from SE
Wind: SE 8 mph , 13 km/h
Temperature: 12°C
Dew Point: 9°C
Humidity: 82%
Barometer: 992 hPa
Clouds: Partly Cloudy
Visibility: 6 miles , 10 km
Cloud details: Few Clouds 549 m
Partly Cloudy 732 m
2020/10/20 10:50 EGEO 201050Z 13007KT 080V150 9999 FEW018 SCT024 12/09 Q0992
EGPA - Kirkwall Airport, United Kingdom
Distance from station: ENE 218km
Updated: Tue, 20-Oct-2020 11:50am BST
Light rain, Mostly cloudy
Light rain, Mostly cloudy
 Wind from ENE
Wind: ENE 22 mph , 35 km/h
Temperature: 10°C
Wind Chill: 6°C
Dew Point: 9°C
Humidity: 94%
Barometer: 995 hPa
Summary: Light Rain
Clouds: Mostly Cloudy
Visibility: 3 miles , 5 km
Cloud details: Mostly Cloudy 91 m
Mostly Cloudy 305 m
2020/10/20 10:50 EGPA 201050Z 06019KT 5000 -RA BKN003 BKN010 10/09 Q0995
 
EGPD - Aberdeen/Dyce, United Kingdom
Distance from station: ESE 271km
Updated: Tue, 20-Oct-2020 11:50am BST
Mostly Cloudy
Mostly Cloudy
 Wind from S
Wind: S 8 mph , 13 km/h
Temperature: 11°C
Dew Point: 9°C
Humidity: 88%
Barometer: 994 hPa
Clouds: Mostly Cloudy
Visibility: 6 miles , 9 km
Cloud details: Partly Cloudy 244 m
Mostly Cloudy 1280 m
2020/10/20 10:50 EGPD 201050Z 18007KT 9000 SCT008 BKN042 11/09 Q0994 NOSIG
EGPI - Islay/Port Ellen, United Kingdom
Distance from station: S 281km
Updated: Tue, 20-Oct-2020 11:50am BST
Partly Cloudy
Partly Cloudy
 Wind from SE
Wind: SE 15 mph , 24 km/h
Temperature: 14°C
Dew Point: 12°C
Humidity: 88%
Barometer: 990 hPa
Clouds: Partly Cloudy
Visibility: 6 miles , 10 km
Cloud details: Partly Cloudy 305 m
2020/10/20 10:50 EGPI 201050Z 13013KT 090V170 9999 SCT010 14/12 Q0990
EGPN - Dundee/Riverside, United Kingdom
Distance from station: SE 281km
Updated: Tue, 20-Oct-2020 11:50am BST
Nearby showers, Mostly cloudy
Nearby showers, Mostly cloudy
 Wind from varies
Wind: varies 2 mph , 4 km/h
Temperature: 11°C
Dew Point: 10°C
Humidity: 94%
Barometer: 994 hPa
Summary: Nearby Showers
Clouds: Mostly Cloudy
Visibility: 5 miles , 8 km
Cloud details: Few Clouds 244 m
Mostly Cloudy 366 m
2020/10/20 10:50 EGPN 201050Z VRB02KT 8000 VCSH FEW008 BKN012 11/10 Q0994
 
EGPF - Glasgow Airport, United Kingdom
Distance from station: SSE 286km
Updated: Tue, 20-Oct-2020 11:50am BST
Mostly Cloudy
Mostly Cloudy
 Wind from ENE
Wind: ENE 10 mph , 17 km/h
Temperature: 12°C
Dew Point: 10°C
Humidity: 88%
Barometer: 993 hPa
Clouds: Mostly Cloudy
Visibility: 6 miles , 10 km
Cloud details: Mostly Cloudy 610 m
Mostly Cloudy 792 m
2020/10/20 10:50 EGPF 201050Z AUTO 06009KT 9999 BKN020 BKN026 12/10 Q0993
EGQL - Leuchars Raf, United Kingdom
Distance from station: SE 293km
Updated: Tue, 20-Oct-2020 11:50am BST
Mostly Cloudy
Mostly Cloudy
 Wind from ESE
Wind: ESE 3 mph , 6 km/h
Temperature: 12°C
Dew Point: 10°C
Humidity: 88%
Barometer: 994 hPa
Clouds: Mostly Cloudy
Visibility: 6 miles , 10 km
Cloud details: Mostly Cloudy 640 m
Mostly Cloudy 1524 m
2020/10/20 10:50 EGQL 201050Z 12003KT 9999 5000W BKN021 BKN050 12/10 Q0994 WHT
EGPH - Edinburgh Airpor, United Kingdom
Distance from station: SE 311km
Updated: Tue, 20-Oct-2020 11:50am BST
Mostly Cloudy
Mostly Cloudy
 Wind from NNE
Wind: NNE 6 mph , 9 km/h
Temperature: 11°C
Dew Point: 10°C
Humidity: 94%
Barometer: 994 hPa
Clouds: Mostly Cloudy
Visibility: 6 miles , 10 km
Cloud details: Mostly Cloudy 518 m
2020/10/20 10:50 EGPH 201050Z 03005KT 9999 BKN017 11/10 Q0994
 
EGEC - Campbeltown, United Kingdom
Distance from station: S 312km
Updated: Tue, 20-Oct-2020 11:50am BST
Mostly Cloudy
Mostly Cloudy
 Wind from SE
Wind: SE 23 mph , 37 km/h
Temperature: 15°C
Dew Point: 13°C
Humidity: 88%
Barometer: 990 hPa
Clouds: Mostly Cloudy
Visibility: 6 miles , 10 km
Cloud details: Partly Cloudy 366 m
Mostly Cloudy 762 m
2020/10/20 10:50 EGEC 201050Z 14020KT 9999 SCT012 BKN025 15/13 Q0990
EGPK - Prestwick(Civ/Na, United Kingdom
Distance from station: SSE 321km
Updated: Tue, 20-Oct-2020 11:50am BST
Partly Cloudy
Partly Cloudy
 Wind from SSE
Wind: SSE 5 mph , 7 km/h
Temperature: 15°C
Dew Point: 12°C
Humidity: 82%
Barometer: 993 hPa
Clouds: Partly Cloudy
Visibility: 6 miles , 10 km
Cloud details: Few Clouds 366 m
Partly Cloudy 671 m
2020/10/20 10:50 EGPK 201050Z 16004KT 120V190 9999 FEW012 SCT022 15/12 Q0993
EGPB - Sumburgh (cape), United Kingdom
Distance from station: NE 343km
Updated: Tue, 20-Oct-2020 11:50am BST
Light rain, Mostly cloudy
Light rain, Mostly cloudy
 Wind from ENE
Wind: ENE 32 mph , 52 km/h
Temperature: 8°C
Wind Chill: 2°C
Dew Point: 7°C
Humidity: 93%
Barometer: 998 hPa
Summary: Light Rain
Clouds: Mostly Cloudy
Visibility: 4 miles , 7 km
Cloud details: Partly Cloudy 274 m
Mostly Cloudy 335 m
2020/10/20 10:50 EGPB 201050Z 06028KT 7000 -RA SCT009 BKN011 08/07 Q0998

Metar display script from Saratoga-Weather.org